^^
Station Historical Data
Daily Summary for July 15, 2017 Units:  Metric    English   Both
« Previous Day
Next Day »
Daily Weekly Monthly Yearly Custom
  High: Low: Average:
Temperature: 15.1 °C 7 °C 11.7 °C
Dew Point: 1.1 °C 0.1 °C 0.5 °C
Humidity: 63% 36% 47%
Wind Speed: 16.3km/h 0km/h 8.9km/h
Wind Gust: 19.3km/h - -
Wind- - SW
Pressure: 1020.5 hPa 1016.8 hPa -
Precipitation: 0 mm    
Historical Graphs
 
 
Tabular Data for July 15, 2017
Time Temperature Dew Point Pressure Wind Wind Speed Wind Gust Humidity Rainfall Rate (Hourly) solar Conditions
16:22 15.1 °C 0.1 °C 1016.8 hPa SW 7.9 km/h 14.5 km/h 36% 0 mm 97.0 W/m2
16:37 14.9 °C 0.3 °C 1017.2 hPa SW 16.3 km/h 16.3 km/h 37% 0 mm 53.0 W/m2
16:53 14.4 °C 0.6 °C 1017.2 hPa SW 16.3 km/h 16.3 km/h 39% 0 mm 16.0 W/m2
17:00 14.2 °C 0.8 °C 1017.2 hPa SW 13 km/h 17.7 km/h 40% 0 mm 11.0 W/m2
17:11 13.8 °C 0.8 °C 1017.2 hPa SW 13 km/h 17.7 km/h 41% 0 mm 7.0 W/m2
17:21 13.6 °C 0.9 °C 1017.2 hPa SW 11.1 km/h 17.7 km/h 42% 0 mm 0.0 W/m2
17:32 13.2 °C 0.2 °C 1017.5 hPa SW 13 km/h 17.7 km/h 41% 0 mm 0.0 W/m2
17:41 13 °C 0.4 °C 1017.5 hPa SW 14.3 km/h 17.7 km/h 42% 0 mm 0.0 W/m2
18:02 12.7 °C 0.1 °C 1017.8 hPa SW 9.7 km/h 16.1 km/h 42% 0 mm 0.0 W/m2
18:11 12.3 °C 0.1 °C 1018.2 hPa SW 13 km/h 17.7 km/h 43% 0 mm 0.0 W/m2
18:21 12.2 °C 0.3 °C 1018.2 hPa SW 11.1 km/h 16.1 km/h 44% 0 mm 0.0 W/m2
18:42 11.9 °C 0.3 °C 1018.8 hPa SW 13 km/h 14.5 km/h 45% 0 mm 0.0 W/m2
18:56 11.6 °C 0.7 °C 1018.8 hPa SW 13 km/h 19.3 km/h 47% 0 mm 0.0 W/m2
19:09 11.4 °C 1.1 °C 1018.8 hPa SW 13 km/h 14.5 km/h 49% 0 mm 0.0 W/m2
20:04 10.3 °C 1.1 °C 1019.5 hPa Calm     53% 0 mm 0.0 W/m2
20:35 9.1 °C 0.5 °C 1019.9 hPa Calm     55% 0 mm 0.0 W/m2
21:04 8.5 °C 0.5 °C 1019.9 hPa Calm     57% 0 mm 0.0 W/m2
21:26 8.1 °C 0.3 °C 1020.2 hPa Calm     58% 0 mm 0.0 W/m2
21:41 7.4 °C 0.6 °C 1020.5 hPa Calm     62% 0 mm 0.0 W/m2
21:54 7 °C 0.4 °C 1020.5 hPa Calm     63% 0 mm 0.0 W/m2
Canyon Roadhouse, Fishriver Canyon, Namibia
Compliments of Weather Underground - 1.75 mb